createdAt,value
2023-04-02T08:50:54.064Z,79.91
2023-04-02T08:53:28.556Z,80.57
2023-04-02T08:56:05.491Z,78.85
2023-04-02T08:58:41.434Z,79.59
2023-04-02T09:01:23.842Z,80.79
2023-04-02T09:03:54.372Z,79.41
2023-04-02T09:06:22.075Z,78.84
2023-04-02T09:08:51.794Z,78.54
2023-04-02T09:11:18.128Z,78.92
2023-04-02T09:13:47.854Z,79.29
2023-04-02T09:16:18.297Z,80.05
2023-04-02T09:18:45.535Z,78.49
2023-04-02T09:21:21.011Z,78.82
2023-04-02T09:23:48.754Z,79.68
2023-04-02T09:26:27.602Z,79.01
2023-04-02T09:29:20.835Z,78.28
2023-04-02T09:31:55.476Z,78.54
2023-04-02T09:34:33.191Z,78.64
2023-04-02T09:37:16.261Z,79.46
2023-04-02T09:39:42.945Z,79.60
2023-04-02T09:42:31.438Z,79.74
2023-04-02T09:45:12.412Z,79.85
2023-04-02T09:47:42.308Z,79.49
2023-04-02T09:50:21.997Z,79.62
2023-04-02T09:52:49.726Z,79.93
2023-04-02T09:55:16.107Z,80.20
2023-04-02T09:57:43.003Z,80.17
2023-04-02T10:00:31.685Z,80.31
2023-04-02T10:03:06.806Z,80.73
2023-04-02T10:08:28.098Z,79.85
2023-04-02T10:10:57.937Z,79.80
2023-04-02T10:13:31.348Z,79.68
2023-04-02T10:16:09.472Z,80.43
2023-04-02T10:18:41.427Z,80.04
2023-04-02T10:21:12.667Z,79.82
2023-04-02T10:23:39.573Z,79.98
2023-04-02T10:26:21.944Z,80.19
2023-04-02T10:29:19.017Z,80.26
2023-04-02T10:32:00.380Z,80.45
2023-04-02T10:35:15.944Z,80.58
2023-04-02T10:38:09.552Z,79.91
2023-04-02T10:40:42.479Z,80.18
2023-04-02T10:43:41.066Z,79.57
2023-04-02T10:47:04.417Z,79.25
2023-04-02T10:50:17.720Z,79.03
2023-04-02T10:52:56.514Z,79.42
2023-04-02T10:55:30.977Z,78.31
2023-04-02T10:58:03.622Z,78.86
2023-04-02T11:00:37.106Z,79.21
2023-04-02T11:03:15.088Z,78.47
2023-04-02T11:05:50.801Z,78.30
2023-04-02T11:08:26.424Z,78.80
2023-04-02T11:11:20.122Z,79.36
2023-04-02T11:13:57.978Z,77.43
2023-04-02T11:16:25.411Z,77.68
2023-04-02T11:19:16.885Z,78.18
2023-04-02T11:21:58.580Z,77.63
2023-04-02T11:24:32.997Z,78.03
2023-04-02T11:27:11.395Z,77.40
2023-04-02T11:29:49.286Z,77.23
2023-04-02T11:32:34.733Z,77.07
2023-04-02T11:35:22.982Z,77.05
2023-04-02T11:37:49.586Z,76.89
2023-04-02T11:40:18.922Z,76.84
2023-04-02T11:42:50.936Z,77.49
2023-04-02T11:45:21.230Z,77.12
2023-04-02T11:48:00.557Z,76.99
2023-04-02T11:50:29.995Z,77.29
2023-04-02T11:53:02.005Z,76.60
2023-04-02T11:55:36.099Z,77.05
2023-04-02T11:58:30.959Z,76.57
2023-04-02T12:01:09.278Z,75.96
2023-04-02T12:04:11.422Z,76.41
2023-04-02T12:06:46.801Z,76.43
2023-04-02T12:09:23.539Z,76.67
2023-04-02T12:11:58.968Z,77.11
2023-04-02T12:14:51.742Z,76.35
2023-04-02T12:17:39.793Z,76.74
2023-04-02T12:20:09.660Z,75.77
2023-04-02T12:22:47.880Z,76.52
2023-04-02T12:25:33.903Z,75.57
2023-04-02T12:28:06.407Z,75.65
2023-04-02T12:30:33.996Z,74.62
2023-04-02T12:33:21.993Z,75.49
2023-04-02T12:35:53.282Z,75.68
2023-04-02T12:38:43.566Z,74.76
2023-04-02T12:41:27.356Z,74.95
2023-04-02T12:44:02.402Z,74.28
2023-04-02T12:46:31.524Z,74.32
2023-04-02T12:49:06.641Z,75.07
2023-04-02T12:51:36.192Z,75.01
2023-04-02T12:54:02.955Z,74.74
2023-04-02T12:56:29.308Z,74.78
2023-04-02T12:58:57.868Z,75.25
2023-04-02T13:01:29.354Z,74.50
2023-04-02T13:04:08.107Z,74.24
2023-04-02T13:06:36.234Z,74.63
2023-04-02T13:09:06.012Z,74.75
2023-04-02T13:11:38.087Z,74.19
2023-04-02T13:14:05.772Z,73.69
2023-04-02T13:16:38.192Z,73.54
2023-04-02T13:19:16.705Z,74.15
2023-04-02T13:21:43.890Z,74.63
2023-04-02T13:24:25.323Z,73.20
2023-04-02T13:26:55.770Z,73.32
2023-04-02T13:29:33.549Z,73.50
2023-04-02T13:32:02.294Z,73.32
2023-04-02T13:34:30.076Z,73.53
2023-04-02T13:36:57.413Z,73.28
2023-04-02T13:39:24.186Z,73.20
2023-04-02T13:42:02.731Z,72.63
2023-04-02T13:44:35.060Z,73.78
2023-04-02T13:47:01.740Z,73.41
2023-04-02T13:49:28.192Z,72.92
2023-04-02T13:51:58.703Z,73.33
2023-04-02T13:54:34.912Z,72.68
2023-04-02T13:57:01.443Z,73.48
2023-04-02T13:59:28.004Z,73.87
2023-04-02T14:01:59.295Z,73.94
2023-04-02T14:04:29.927Z,72.78
2023-04-02T14:07:30.025Z,72.69
2023-04-02T14:10:20.437Z,72.69
2023-04-02T14:13:15.284Z,72.65
2023-04-02T14:16:08.729Z,73.02
2023-04-02T14:18:36.631Z,73.35
2023-04-02T14:21:22.984Z,72.34
2023-04-02T14:24:05.633Z,71.89
2023-04-02T14:27:04.366Z,72.59
2023-04-02T14:29:43.791Z,72.12
2023-04-02T14:32:34.413Z,73.17
2023-04-02T14:35:13.043Z,71.83
2023-04-02T14:37:54.436Z,72.24
2023-04-02T14:40:28.503Z,71.17
2023-04-02T14:43:02.991Z,71.35
2023-04-02T14:45:55.043Z,71.32
2023-04-02T14:48:39.985Z,69.77
2023-04-02T14:51:14.438Z,69.33
2023-04-02T14:53:52.662Z,69.76
2023-04-02T14:56:21.728Z,69.35
2023-04-02T14:59:24.163Z,68.26
2023-04-02T15:01:56.613Z,68.79
2023-04-02T15:04:30.901Z,67.57
2023-04-02T15:07:05.444Z,68.19
2023-04-02T15:09:38.224Z,68.06
2023-04-02T15:12:28.680Z,68.20
2023-04-02T15:15:03.428Z,68.10
2023-04-02T15:17:31.004Z,68.66
2023-04-02T15:20:12.148Z,67.66
2023-04-02T15:22:47.577Z,68.64
2023-04-02T15:25:29.417Z,67.87
2023-04-02T15:28:07.352Z,68.76
2023-04-02T15:30:45.095Z,68.14
2023-04-02T15:33:28.215Z,68.29
2023-04-02T15:36:16.194Z,68.16
2023-04-02T15:38:54.520Z,67.98
2023-04-02T15:41:32.240Z,67.79
2023-04-02T15:44:09.776Z,66.81
2023-04-02T15:47:02.307Z,66.20
2023-04-02T15:50:04.281Z,66.50
2023-04-02T15:52:46.826Z,65.57
2023-04-02T15:55:27.870Z,66.61
2023-04-02T15:58:12.757Z,67.13
2023-04-02T16:01:02.141Z,66.31
2023-04-02T16:03:56.139Z,66.82
2023-04-02T16:06:34.521Z,66.02
2023-04-02T16:09:16.060Z,64.72
2023-04-02T16:11:42.698Z,65.58
2023-04-02T16:14:32.055Z,65.38
2023-04-02T16:17:10.850Z,66.57
2023-04-02T16:20:14.457Z,65.53
